createdAt,value
2022-12-22T00:00:26.228Z,8.71
2022-12-22T00:03:11.745Z,8.74
2022-12-22T00:05:57.069Z,8.72
2022-12-22T00:08:42.420Z,8.81
2022-12-22T00:11:31.034Z,8.86
2022-12-22T00:14:16.815Z,8.92
2022-12-22T00:17:02.201Z,9.08
2022-12-22T00:19:48.320Z,9.67
2022-12-22T00:22:37.811Z,9.91
2022-12-22T00:25:23.668Z,9.89
2022-12-22T00:28:10.532Z,9.88
2022-12-22T00:30:55.861Z,9.82
2022-12-22T00:33:41.546Z,9.83
2022-12-22T00:36:29.843Z,9.83
2022-12-22T00:39:15.196Z,9.80
2022-12-22T00:42:00.548Z,9.83
2022-12-22T00:44:47.200Z,9.84
2022-12-22T00:47:35.943Z,9.80
2022-12-22T00:50:21.332Z,9.78
2022-12-22T00:53:06.609Z,9.77
2022-12-22T00:55:51.995Z,9.75
2022-12-22T00:58:38.982Z,9.68
2022-12-22T01:01:25.576Z,9.63
2022-12-22T01:04:10.808Z,9.57
2022-12-22T01:06:55.934Z,9.58
2022-12-22T01:09:41.943Z,9.56
2022-12-22T01:12:32.861Z,9.55
2022-12-22T01:15:18.209Z,9.68
2022-12-22T01:18:04.937Z,9.68
2022-12-22T01:20:50.798Z,9.70
2022-12-22T01:23:36.216Z,9.71
2022-12-22T01:26:21.333Z,9.78
2022-12-22T01:29:06.711Z,9.78
2022-12-22T01:31:51.980Z,9.80
2022-12-22T01:34:38.602Z,9.86
2022-12-22T01:37:23.953Z,9.91
2022-12-22T01:40:09.308Z,9.93
2022-12-22T01:42:54.810Z,10.00
2022-12-22T01:45:42.564Z,10.09
2022-12-22T01:48:30.705Z,10.11
2022-12-22T01:51:20.589Z,10.14
2022-12-22T01:54:06.320Z,10.15
2022-12-22T01:56:51.653Z,10.25
2022-12-22T01:59:37.067Z,10.23
2022-12-22T02:02:24.928Z,10.20
2022-12-22T02:05:11.165Z,10.24
2022-12-22T02:08:09.760Z,10.24
2022-12-22T02:11:13.369Z,10.29
2022-12-22T02:14:10.263Z,10.34
2022-12-22T02:17:00.747Z,10.48
2022-12-22T02:20:05.629Z,10.59
2022-12-22T02:22:58.304Z,10.67
2022-12-22T02:25:53.919Z,10.79
2022-12-22T02:28:41.926Z,10.81
2022-12-22T02:31:27.349Z,10.98
2022-12-22T02:34:12.915Z,11.00
2022-12-22T02:37:08.843Z,11.05
2022-12-22T02:40:04.363Z,11.05
2022-12-22T02:42:53.836Z,11.07
2022-12-22T02:45:48.876Z,11.27
2022-12-22T02:48:40.504Z,11.35
2022-12-22T02:51:30.500Z,11.40
2022-12-22T02:54:16.445Z,11.50
2022-12-22T02:57:02.404Z,11.43
2022-12-22T02:59:47.776Z,11.42
2022-12-22T03:02:34.434Z,11.45
2022-12-22T03:05:19.555Z,11.51
2022-12-22T03:08:08.531Z,11.42
2022-12-22T03:10:53.776Z,11.37
2022-12-22T03:13:39.013Z,11.40
2022-12-22T03:16:24.388Z,11.42
2022-12-22T03:19:10.793Z,11.39
2022-12-22T03:21:56.332Z,11.42
2022-12-22T03:24:41.595Z,11.63
2022-12-22T03:27:09.225Z,11.62
2022-12-22T03:29:36.742Z,11.59
2022-12-22T03:32:04.566Z,11.54
2022-12-22T03:34:33.482Z,11.57
2022-12-22T03:37:01.066Z,11.77
2022-12-22T03:39:28.647Z,11.81
2022-12-22T03:42:13.822Z,11.86
2022-12-22T03:44:59.182Z,12.07
2022-12-22T03:47:26.853Z,12.12
2022-12-22T03:49:55.769Z,12.05
2022-12-22T03:52:23.292Z,12.03
2022-12-22T03:54:51.262Z,12.07
2022-12-22T03:57:18.805Z,12.02
2022-12-22T03:59:46.367Z,11.96
2022-12-22T04:02:14.060Z,12.00
2022-12-22T04:04:41.777Z,12.00
2022-12-22T04:07:10.698Z,11.97
2022-12-22T04:09:58.407Z,11.97
2022-12-22T04:12:39.891Z,11.96
2022-12-22T04:15:08.867Z,11.94
2022-12-22T04:17:36.385Z,11.88
2022-12-22T04:20:04.365Z,11.87
2022-12-22T04:22:33.297Z,11.82
2022-12-22T04:25:00.845Z,11.77
2022-12-22T04:27:28.374Z,11.75
2022-12-22T04:29:55.918Z,11.66
2022-12-22T04:32:23.499Z,11.70
2022-12-22T04:34:51.038Z,11.58
2022-12-22T04:37:18.580Z,11.52
2022-12-22T04:39:47.456Z,11.55
2022-12-22T04:42:15.090Z,11.56
2022-12-22T04:44:42.681Z,11.51
2022-12-22T04:47:10.270Z,11.50
2022-12-22T04:49:37.813Z,11.57
2022-12-22T04:52:05.717Z,11.59
2022-12-22T04:54:33.304Z,11.64
2022-12-22T04:57:02.185Z,11.63
2022-12-22T04:59:29.729Z,11.67
2022-12-22T05:01:57.361Z,11.67
2022-12-22T05:04:25.135Z,11.72
2022-12-22T05:06:52.660Z,11.74
2022-12-22T05:09:20.193Z,11.83
2022-12-22T05:11:47.732Z,12.00
2022-12-22T05:14:16.802Z,12.12
2022-12-22T05:16:44.451Z,12.19
2022-12-22T05:19:12.069Z,12.18
2022-12-22T05:21:39.650Z,12.14
2022-12-22T05:24:07.996Z,12.10
2022-12-22T05:26:35.666Z,12.09
2022-12-22T05:29:03.310Z,12.11
2022-12-22T05:31:32.200Z,12.16
2022-12-22T05:33:59.726Z,12.19
2022-12-22T05:36:27.395Z,12.22
2022-12-22T05:38:54.944Z,12.25
2022-12-22T05:41:22.557Z,12.23
2022-12-22T05:43:50.134Z,12.31
2022-12-22T05:46:17.748Z,12.37
2022-12-22T05:48:46.655Z,12.47
2022-12-22T05:51:14.249Z,12.56
2022-12-22T05:53:42.193Z,12.52
2022-12-22T05:56:10.006Z,12.56
2022-12-22T05:58:39.587Z,12.60
2022-12-22T06:01:07.547Z,12.72
2022-12-22T06:03:35.277Z,12.68
2022-12-22T06:06:04.462Z,12.58
2022-12-22T06:08:31.997Z,12.54
2022-12-22T06:11:00.028Z,12.59
2022-12-22T06:13:28.079Z,12.58
2022-12-22T06:15:55.749Z,12.57
2022-12-22T06:18:23.428Z,12.69
2022-12-22T06:20:52.338Z,12.70
2022-12-22T06:23:21.748Z,12.64
2022-12-22T06:25:55.334Z,12.46
2022-12-22T06:28:23.008Z,12.40
2022-12-22T06:30:50.658Z,12.35
2022-12-22T06:33:18.211Z,12.40
2022-12-22T06:35:46.052Z,12.43
2022-12-22T06:38:13.675Z,12.52
2022-12-22T06:40:42.626Z,12.74
2022-12-22T06:43:10.043Z,12.77
2022-12-22T06:45:39.349Z,12.93
2022-12-22T06:48:07.356Z,12.93
2022-12-22T06:50:35.409Z,12.93
2022-12-22T06:53:03.958Z,12.98
2022-12-22T06:55:31.767Z,13.04
2022-12-22T06:58:00.778Z,12.92
2022-12-22T07:00:28.448Z,12.94
2022-12-22T07:02:56.452Z,12.93
2022-12-22T07:05:24.672Z,12.97
2022-12-22T07:07:52.431Z,12.99
2022-12-22T07:10:40.313Z,12.98
2022-12-22T07:13:20.211Z,13.03
2022-12-22T07:15:55.291Z,13.03
2022-12-22T07:18:27.313Z,12.97
2022-12-22T07:20:55.691Z,12.81
2022-12-22T07:23:23.245Z,12.82
2022-12-22T07:25:50.809Z,12.73
2022-12-22T07:28:21.507Z,12.74
2022-12-22T07:30:49.287Z,12.74
2022-12-22T07:33:16.820Z,12.74
2022-12-22T07:35:44.489Z,12.72
2022-12-22T07:38:13.078Z,12.74
2022-12-22T07:40:42.482Z,12.84
2022-12-22T07:43:10.138Z,12.79
2022-12-22T07:45:39.319Z,12.77
2022-12-22T07:48:27.292Z,12.84
2022-12-22T07:50:54.420Z,12.87
2022-12-22T07:53:22.001Z,12.86
2022-12-22T07:55:49.558Z,12.95
2022-12-22T07:58:17.076Z,12.95
2022-12-22T08:00:45.964Z,12.95
2022-12-22T08:03:13.741Z,13.00
2022-12-22T08:05:41.319Z,13.07
2022-12-22T08:08:08.826Z,13.09
2022-12-22T08:10:36.336Z,13.02
2022-12-22T08:13:03.957Z,13.05
2022-12-22T08:15:31.634Z,13.04
2022-12-22T08:18:00.513Z,13.04
2022-12-22T08:20:28.170Z,13.04
2022-12-22T08:22:57.557Z,13.05
2022-12-22T08:25:25.224Z,13.02
2022-12-22T08:27:56.356Z,13.03
2022-12-22T08:30:23.918Z,13.03
2022-12-22T08:32:52.351Z,13.06
2022-12-22T08:35:21.365Z,13.06
2022-12-22T08:37:49.715Z,13.10
2022-12-22T08:40:21.384Z,13.04
2022-12-22T08:42:52.599Z,12.91
2022-12-22T08:45:20.166Z,12.89
2022-12-22T08:47:47.694Z,12.89
2022-12-22T08:50:15.277Z,12.86
2022-12-22T08:52:44.280Z,12.61
2022-12-22T08:55:12.218Z,12.33
2022-12-22T08:57:39.745Z,12.11
2022-12-22T09:00:08.839Z,11.95
2022-12-22T09:02:38.505Z,11.82
2022-12-22T09:05:06.513Z,11.72
2022-12-22T09:07:34.068Z,11.71
2022-12-22T09:10:02.991Z,11.60
2022-12-22T09:12:30.588Z,11.63
2022-12-22T09:14:58.496Z,11.66
2022-12-22T09:17:26.112Z,11.60
2022-12-22T09:19:53.849Z,11.56
2022-12-22T09:22:28.238Z,11.45
2022-12-22T09:24:56.573Z,11.38
2022-12-22T09:27:25.665Z,11.36
2022-12-22T09:29:53.269Z,11.24
2022-12-22T09:32:20.986Z,11.14
2022-12-22T09:34:49.278Z,11.10
2022-12-22T09:37:17.295Z,11.00
2022-12-22T09:39:45.087Z,10.92
2022-12-22T09:42:15.470Z,10.87
2022-12-22T09:44:46.087Z,10.90
2022-12-22T09:47:21.872Z,10.90
2022-12-22T09:49:50.246Z,10.92
2022-12-22T09:52:25.891Z,10.93
2022-12-22T09:54:53.413Z,10.90
2022-12-22T09:57:21.228Z,10.85
2022-12-22T09:59:50.355Z,10.70
2022-12-22T10:02:28.017Z,10.77
2022-12-22T10:05:11.679Z,10.74
2022-12-22T10:07:42.178Z,10.81
2022-12-22T10:10:20.987Z,10.86
2022-12-22T10:12:50.936Z,10.90
2022-12-22T10:15:21.960Z,10.96
2022-12-22T10:17:51.557Z,11.07
2022-12-22T10:20:26.217Z,11.16
2022-12-22T10:22:55.916Z,11.30
2022-12-22T10:28:36.305Z,11.38
2022-12-22T10:31:18.606Z,11.42
2022-12-22T10:33:48.472Z,11.37
2022-12-22T10:36:21.047Z,11.19
2022-12-22T10:38:59.795Z,11.30
2022-12-22T10:41:29.910Z,11.27
2022-12-22T10:44:00.180Z,11.33
2022-12-22T10:46:36.557Z,11.47
2022-12-22T10:49:17.833Z,11.26
2022-12-22T10:51:49.065Z,11.14
2022-12-22T10:54:31.963Z,11.04
2022-12-22T10:57:05.934Z,11.06
2022-12-22T10:59:34.634Z,11.00
2022-12-22T11:02:38.902Z,11.01
2022-12-22T11:05:09.488Z,10.95
2022-12-22T11:07:39.273Z,10.98
2022-12-22T11:10:19.198Z,11.08
2022-12-22T11:13:00.165Z,11.19
2022-12-22T11:15:35.592Z,11.21
2022-12-22T11:18:19.277Z,11.18
2022-12-22T11:20:52.581Z,11.14
2022-12-22T11:23:31.686Z,11.30
2022-12-22T11:26:10.020Z,11.23
2022-12-22T11:28:53.652Z,11.18
2022-12-22T11:31:35.450Z,10.97
2022-12-22T11:34:20.833Z,10.87
2022-12-22T11:37:02.740Z,10.74
2022-12-22T11:39:40.012Z,10.74
2022-12-22T11:42:24.075Z,10.65
2022-12-22T11:45:02.302Z,10.55
2022-12-22T11:47:49.326Z,10.60
2022-12-22T11:50:59.265Z,10.58
2022-12-22T11:53:40.711Z,10.53
2022-12-22T11:56:22.705Z,10.52
2022-12-22T11:59:24.385Z,10.51
2022-12-22T12:02:10.847Z,10.56
2022-12-22T12:04:56.397Z,10.59
2022-12-22T12:07:30.728Z,10.59
2022-12-22T12:10:11.455Z,10.56
2022-12-22T12:12:47.645Z,10.50
2022-12-22T12:15:27.533Z,10.52
2022-12-22T12:18:09.973Z,10.56
2022-12-22T12:20:51.594Z,10.53
2022-12-22T12:23:36.180Z,10.49
2022-12-22T12:26:11.605Z,10.49
2022-12-22T12:28:51.582Z,10.50
2022-12-22T12:31:26.229Z,10.53
2022-12-22T12:33:59.057Z,10.48
2022-12-22T12:36:40.439Z,10.49
2022-12-22T12:39:17.287Z,10.49
2022-12-22T12:41:57.864Z,10.52
2022-12-22T12:44:28.697Z,10.57
2022-12-22T12:47:04.989Z,10.52
2022-12-22T12:49:56.076Z,10.49
2022-12-22T12:53:05.892Z,10.54
2022-12-22T12:55:52.479Z,10.54
2022-12-22T12:58:51.633Z,10.62
2022-12-22T13:01:53.761Z,10.66
2022-12-22T13:05:01.575Z,10.75
2022-12-22T13:08:06.860Z,10.72
2022-12-22T13:10:41.225Z,10.73
2022-12-22T13:13:12.619Z,10.69
2022-12-22T13:15:42.482Z,10.71
2022-12-22T13:18:41.878Z,10.76
2022-12-22T13:24:24.035Z,10.71
2022-12-22T13:26:56.181Z,10.73
2022-12-22T13:29:30.812Z,10.70
2022-12-22T13:32:02.645Z,10.68
2022-12-22T13:34:57.221Z,10.71
2022-12-22T13:37:28.363Z,10.71
2022-12-22T13:40:14.483Z,10.70
2022-12-22T13:42:48.189Z,10.71
2022-12-22T13:45:27.225Z,10.69
2022-12-22T13:47:55.431Z,10.61
2022-12-22T13:50:26.244Z,10.67
2022-12-22T13:52:55.508Z,10.70
2022-12-22T13:55:27.348Z,10.75
2022-12-22T13:57:59.343Z,10.76
2022-12-22T14:00:29.471Z,10.76
2022-12-22T14:02:57.234Z,10.77
2022-12-22T14:05:32.012Z,10.79
2022-12-22T14:08:01.853Z,10.89
2022-12-22T14:10:38.292Z,10.88
2022-12-22T14:13:12.997Z,10.93
2022-12-22T14:15:40.609Z,10.94
2022-12-22T14:18:08.309Z,10.91
2022-12-22T14:20:40.093Z,10.95
2022-12-22T14:23:11.953Z,10.99
2022-12-22T14:25:42.802Z,10.98
2022-12-22T14:28:19.556Z,10.98
2022-12-22T14:30:51.408Z,10.98
2022-12-22T14:33:28.585Z,11.02
2022-12-22T14:36:06.624Z,11.02
2022-12-22T14:38:40.568Z,11.00
2022-12-22T14:41:32.764Z,11.01
2022-12-22T14:44:03.434Z,10.98
2022-12-22T14:46:38.396Z,10.98
2022-12-22T14:49:07.016Z,10.98
2022-12-22T14:51:34.719Z,10.98
2022-12-22T14:54:03.587Z,11.03
2022-12-22T14:56:31.584Z,10.97
2022-12-22T14:59:11.846Z,10.97
2022-12-22T15:01:39.563Z,10.95
2022-12-22T15:04:16.667Z,10.90
2022-12-22T15:06:47.775Z,10.89
2022-12-22T15:10:13.161Z,10.89
2022-12-22T15:12:19.918Z,10.88
2022-12-22T15:14:49.659Z,10.88
2022-12-22T15:17:23.363Z,10.91
2022-12-22T15:19:51.868Z,10.86
2022-12-22T15:22:19.367Z,10.90
2022-12-22T15:24:47.820Z,10.92
2022-12-22T15:27:15.518Z,10.98
2022-12-22T15:29:43.073Z,11.01
2022-12-22T15:32:13.942Z,11.06
2022-12-22T15:34:41.522Z,11.08
2022-12-22T15:37:12.734Z,11.12
2022-12-22T15:39:40.653Z,11.18
2022-12-22T15:42:08.371Z,11.20
2022-12-22T15:44:38.872Z,11.17
2022-12-22T15:47:09.233Z,11.16
2022-12-22T15:49:38.294Z,11.13
2022-12-22T15:52:07.662Z,11.09
2022-12-22T15:54:36.962Z,11.14
2022-12-22T15:57:04.809Z,11.12
2022-12-22T15:59:32.397Z,11.10
2022-12-22T16:02:01.913Z,11.18
2022-12-22T16:04:29.934Z,11.15
2022-12-22T16:06:59.834Z,11.11
2022-12-22T16:09:31.216Z,11.16
2022-12-22T16:11:59.282Z,11.21
2022-12-22T16:14:26.978Z,11.28
2022-12-22T16:16:54.592Z,11.32
2022-12-22T16:19:22.148Z,11.35
2022-12-22T16:21:53.935Z,11.33
2022-12-22T16:24:28.867Z,11.32
2022-12-22T16:26:57.724Z,11.37
2022-12-22T16:29:26.178Z,11.40
2022-12-22T16:31:54.056Z,11.39
2022-12-22T16:34:21.657Z,11.39
2022-12-22T16:36:49.331Z,11.34
2022-12-22T16:39:16.938Z,11.32
2022-12-22T16:41:46.356Z,11.30
2022-12-22T16:44:27.561Z,11.25
2022-12-22T16:46:57.319Z,11.21
2022-12-22T16:49:27.101Z,11.20
2022-12-22T16:51:55.891Z,11.19
2022-12-22T16:54:23.651Z,11.29
2022-12-22T16:56:52.595Z,11.39
2022-12-22T16:59:20.146Z,11.37
2022-12-22T17:01:51.533Z,11.40
2022-12-22T17:04:22.969Z,11.39
2022-12-22T17:06:51.533Z,11.38
2022-12-22T17:09:23.212Z,11.44
2022-12-22T17:11:54.076Z,11.46
2022-12-22T17:14:29.033Z,11.51
2022-12-22T17:16:58.757Z,11.54
2022-12-22T17:19:27.945Z,11.61
2022-12-22T17:21:59.160Z,11.66
2022-12-22T17:24:30.422Z,11.61
2022-12-22T17:27:05.237Z,11.61
2022-12-22T17:29:35.274Z,11.65
2022-12-22T17:32:03.009Z,11.60
2022-12-22T17:34:30.637Z,11.59
2022-12-22T17:36:59.801Z,11.63
2022-12-22T17:39:27.466Z,11.67
2022-12-22T17:41:57.278Z,11.82
2022-12-22T17:44:27.557Z,11.83
2022-12-22T17:46:55.352Z,11.87
2022-12-22T17:49:23.028Z,11.88
2022-12-22T17:51:51.093Z,11.91
2022-12-22T17:54:24.359Z,11.96
2022-12-22T17:56:53.003Z,11.99
2022-12-22T17:59:20.689Z,12.02
2022-12-22T18:01:49.781Z,12.01
2022-12-22T18:04:18.116Z,12.05
2022-12-22T18:06:46.059Z,12.01
2022-12-22T18:09:20.900Z,11.99
2022-12-22T18:11:49.209Z,11.92
2022-12-22T18:14:18.361Z,11.88
2022-12-22T18:16:45.998Z,11.98
2022-12-22T18:19:15.045Z,11.97
2022-12-22T18:21:42.809Z,12.01
2022-12-22T18:24:16.290Z,12.27
2022-12-22T18:26:43.932Z,12.33
2022-12-22T18:29:15.100Z,12.31
2022-12-22T18:31:43.922Z,12.25
2022-12-22T18:34:11.803Z,12.22
2022-12-22T18:36:42.446Z,12.22
2022-12-22T18:39:17.761Z,12.26
2022-12-22T18:41:45.973Z,12.24
2022-12-22T18:44:16.674Z,12.35
2022-12-22T18:46:44.444Z,12.29
2022-12-22T18:49:12.095Z,12.23
2022-12-22T18:51:42.665Z,12.26
2022-12-22T18:54:22.197Z,12.17
2022-12-22T18:56:51.331Z,12.05
2022-12-22T18:59:24.467Z,11.99
2022-12-22T19:01:52.978Z,11.93
2022-12-22T19:04:20.764Z,11.92
2022-12-22T19:06:49.703Z,11.90
2022-12-22T19:09:17.409Z,11.77
2022-12-22T19:11:45.380Z,11.70
2022-12-22T19:14:18.741Z,11.68
2022-12-22T19:16:46.454Z,11.64
2022-12-22T19:19:18.476Z,11.62
2022-12-22T19:21:46.119Z,11.53
2022-12-22T19:24:15.152Z,11.42
2022-12-22T19:26:42.907Z,11.43
2022-12-22T19:29:14.819Z,11.40
2022-12-22T19:31:44.239Z,11.34
2022-12-22T19:34:20.639Z,11.32
2022-12-22T19:36:48.429Z,11.27
2022-12-22T19:39:17.716Z,11.23
2022-12-22T19:41:47.916Z,11.15
2022-12-22T19:44:19.903Z,11.13
2022-12-22T19:46:48.035Z,11.07
2022-12-22T19:49:17.625Z,11.05
2022-12-22T19:51:45.224Z,11.03
2022-12-22T19:54:13.143Z,11.03
2022-12-22T19:56:43.164Z,11.00
2022-12-22T19:59:27.011Z,10.95
2022-12-22T20:01:57.851Z,10.91
2022-12-22T20:04:25.645Z,10.93
2022-12-22T20:06:53.255Z,10.86
2022-12-22T20:09:20.811Z,10.80
2022-12-22T20:11:49.858Z,10.82
2022-12-22T20:14:18.671Z,10.83
2022-12-22T20:16:46.842Z,10.84
2022-12-22T20:19:14.962Z,10.86
2022-12-22T20:21:43.216Z,10.82
2022-12-22T20:24:20.275Z,10.79
2022-12-22T20:26:53.751Z,10.79
2022-12-22T20:29:25.229Z,10.84
2022-12-22T20:31:52.970Z,10.89
2022-12-22T20:34:20.605Z,10.96
2022-12-22T20:36:48.219Z,11.00
2022-12-22T20:39:18.661Z,11.06
2022-12-22T20:41:52.687Z,11.11
2022-12-22T20:44:20.700Z,11.10
2022-12-22T20:46:49.925Z,11.20
2022-12-22T20:49:17.584Z,11.15
2022-12-22T20:51:45.207Z,11.18
2022-12-22T20:54:14.185Z,11.19
2022-12-22T20:56:45.658Z,11.15
2022-12-22T20:59:16.499Z,11.12
2022-12-22T21:01:44.278Z,11.12
2022-12-22T21:04:14.501Z,11.11
2022-12-22T21:06:46.454Z,11.07
2022-12-22T21:09:15.850Z,11.02
2022-12-22T21:11:43.509Z,10.96
2022-12-22T21:14:12.596Z,11.03
2022-12-22T21:16:41.242Z,11.02
2022-12-22T21:19:09.459Z,10.96
2022-12-22T21:21:38.377Z,10.97
2022-12-22T21:24:06.334Z,10.95
2022-12-22T21:26:37.053Z,10.92
2022-12-22T21:29:09.333Z,10.91
2022-12-22T21:31:36.969Z,10.90
2022-12-22T21:34:04.599Z,10.88
2022-12-22T21:36:34.803Z,10.85
2022-12-22T21:39:16.942Z,10.80
2022-12-22T21:42:04.380Z,10.77
2022-12-22T21:44:34.173Z,10.76
2022-12-22T21:47:02.629Z,10.71
2022-12-22T21:49:32.171Z,10.69
2022-12-22T21:52:00.181Z,10.64
2022-12-22T21:54:29.389Z,10.63
2022-12-22T21:56:57.208Z,10.58
2022-12-22T21:59:25.098Z,10.50
2022-12-22T22:01:53.461Z,10.42
2022-12-22T22:04:22.185Z,10.35
2022-12-22T22:06:49.958Z,10.36
2022-12-22T22:09:17.561Z,10.34
2022-12-22T22:12:04.322Z,10.33
2022-12-22T22:14:32.023Z,10.24
2022-12-22T22:16:59.620Z,10.12
2022-12-22T22:19:27.201Z,10.12
2022-12-22T22:21:54.876Z,10.15
2022-12-22T22:24:22.506Z,10.08
2022-12-22T22:26:51.691Z,10.05
2022-12-22T22:29:19.556Z,10.06
2022-12-22T22:31:47.226Z,10.06
2022-12-22T22:34:15.294Z,10.06
2022-12-22T22:36:42.903Z,10.10
2022-12-22T22:39:10.510Z,10.04
2022-12-22T22:41:43.324Z,10.02
2022-12-22T22:44:13.116Z,10.00
2022-12-22T22:46:40.885Z,10.00
2022-12-22T22:49:09.302Z,9.97
2022-12-22T22:51:37.227Z,9.94
2022-12-22T22:54:04.910Z,9.91
2022-12-22T22:56:32.603Z,9.85
2022-12-22T22:59:00.452Z,9.85
2022-12-22T23:01:29.725Z,9.86
2022-12-22T23:03:57.648Z,9.88
2022-12-22T23:06:25.490Z,9.89
2022-12-22T23:08:54.190Z,9.91
2022-12-22T23:11:21.915Z,9.93
2022-12-22T23:13:49.532Z,9.95
2022-12-22T23:16:21.194Z,9.96
2022-12-22T23:18:52.578Z,9.97
2022-12-22T23:21:21.339Z,9.97
2022-12-22T23:23:49.068Z,9.93
2022-12-22T23:26:16.655Z,9.93
2022-12-22T23:28:44.249Z,9.91
2022-12-22T23:31:12.838Z,9.91
2022-12-22T23:33:40.518Z,9.92
2022-12-22T23:36:09.924Z,9.92
2022-12-22T23:38:37.725Z,9.95
2022-12-22T23:41:07.348Z,9.97
2022-12-22T23:43:35.524Z,9.95
2022-12-22T23:46:07.180Z,9.99
2022-12-22T23:48:35.014Z,9.97
2022-12-22T23:51:02.584Z,9.96
2022-12-22T23:53:31.475Z,9.95
2022-12-22T23:55:59.352Z,9.93
2022-12-22T23:58:27.021Z,9.95
